sensor_id;sensor_type;location;lat;lon;timestamp;P1;durP1;ratioP1;P2;durP2;ratioP2
37905;SDS011;23739;51.448;6.674;2023-08-21T00:01:47;3.05;;;1.63;;
37905;SDS011;23739;51.448;6.674;2023-08-21T00:04:13;4.05;;;1.83;;
37905;SDS011;23739;51.448;6.674;2023-08-21T00:06:39;7.47;;;1.75;;
37905;SDS011;23739;51.448;6.674;2023-08-21T00:09:04;9.23;;;2.13;;
37905;SDS011;23739;51.448;6.674;2023-08-21T00:11:30;3.05;;;1.70;;
37905;SDS011;23739;51.448;6.674;2023-08-21T00:13:56;5.45;;;2.58;;
37905;SDS011;23739;51.448;6.674;2023-08-21T00:16:22;13.20;;;2.42;;
37905;SDS011;23739;51.448;6.674;2023-08-21T00:18:48;6.07;;;2.70;;
37905;SDS011;23739;51.448;6.674;2023-08-21T00:21:13;7.28;;;2.25;;
37905;SDS011;23739;51.448;6.674;2023-08-21T00:23:39;11.13;;;2.53;;
37905;SDS011;23739;51.448;6.674;2023-08-21T00:26:05;9.77;;;2.40;;
37905;SDS011;23739;51.448;6.674;2023-08-21T00:28:31;7.30;;;2.13;;
37905;SDS011;23739;51.448;6.674;2023-08-21T00:31:04;10.48;;;2.15;;
37905;SDS011;23739;51.448;6.674;2023-08-21T00:33:31;4.72;;;2.08;;
37905;SDS011;23739;51.448;6.674;2023-08-21T00:35:57;7.18;;;2.35;;
37905;SDS011;23739;51.448;6.674;2023-08-21T00:38:23;6.53;;;2.80;;
37905;SDS011;23739;51.448;6.674;2023-08-21T00:40:50;9.20;;;2.45;;
37905;SDS011;23739;51.448;6.674;2023-08-21T00:43:16;9.85;;;2.20;;
37905;SDS011;23739;51.448;6.674;2023-08-21T00:45:42;6.40;;;2.22;;
37905;SDS011;23739;51.448;6.674;2023-08-21T00:48:09;11.18;;;2.15;;
37905;SDS011;23739;51.448;6.674;2023-08-21T00:50:36;8.80;;;2.25;;
37905;SDS011;23739;51.448;6.674;2023-08-21T00:53:03;4.75;;;2.17;;
37905;SDS011;23739;51.448;6.674;2023-08-21T00:55:29;6.38;;;2.30;;
37905;SDS011;23739;51.448;6.674;2023-08-21T00:57:56;6.22;;;2.13;;
37905;SDS011;23739;51.448;6.674;2023-08-21T01:00:24;7.22;;;1.92;;
37905;SDS011;23739;51.448;6.674;2023-08-21T01:02:52;6.93;;;1.85;;
37905;SDS011;23739;51.448;6.674;2023-08-21T01:05:18;6.80;;;2.10;;
37905;SDS011;23739;51.448;6.674;2023-08-21T01:07:50;10.55;;;2.28;;
37905;SDS011;23739;51.448;6.674;2023-08-21T01:15:45;5.32;;;2.25;;
37905;SDS011;23739;51.448;6.674;2023-08-21T01:18:12;10.05;;;2.15;;
37905;SDS011;23739;51.448;6.674;2023-08-21T01:20:39;7.70;;;2.92;;
37905;SDS011;23739;51.448;6.674;2023-08-21T01:23:06;5.82;;;2.47;;
37905;SDS011;23739;51.448;6.674;2023-08-21T01:25:32;4.07;;;2.22;;
37905;SDS011;23739;51.448;6.674;2023-08-21T01:27:58;6.55;;;1.70;;
37905;SDS011;23739;51.448;6.674;2023-08-21T01:30:24;5.40;;;2.33;;
37905;SDS011;23739;51.448;6.674;2023-08-21T01:35:30;5.72;;;1.80;;
37905;SDS011;23739;51.448;6.674;2023-08-21T01:37:58;6.25;;;1.75;;
37905;SDS011;23739;51.448;6.674;2023-08-21T01:40:24;7.60;;;1.83;;
37905;SDS011;23739;51.448;6.674;2023-08-21T01:42:52;3.50;;;1.90;;
37905;SDS011;23739;51.448;6.674;2023-08-21T01:45:19;5.70;;;1.90;;
37905;SDS011;23739;51.448;6.674;2023-08-21T01:47:45;3.80;;;1.70;;
37905;SDS011;23739;51.448;6.674;2023-08-21T01:50:10;3.60;;;1.48;;
37905;SDS011;23739;51.448;6.674;2023-08-21T01:52:36;6.47;;;1.98;;
37905;SDS011;23739;51.448;6.674;2023-08-21T01:55:02;5.28;;;2.00;;
37905;SDS011;23739;51.448;6.674;2023-08-21T01:57:29;5.50;;;1.85;;
37905;SDS011;23739;51.448;6.674;2023-08-21T01:59:54;4.70;;;1.77;;
37905;SDS011;23739;51.448;6.674;2023-08-21T02:02:20;6.53;;;1.92;;
37905;SDS011;23739;51.448;6.674;2023-08-21T02:04:46;6.47;;;1.67;;
37905;SDS011;23739;51.448;6.674;2023-08-21T02:07:12;4.05;;;1.75;;
37905;SDS011;23739;51.448;6.674;2023-08-21T02:09:37;7.22;;;1.75;;
37905;SDS011;23739;51.448;6.674;2023-08-21T02:12:03;5.70;;;1.70;;
37905;SDS011;23739;51.448;6.674;2023-08-21T02:14:29;6.15;;;1.83;;
37905;SDS011;23739;51.448;6.674;2023-08-21T02:16:55;8.75;;;1.70;;
37905;SDS011;23739;51.448;6.674;2023-08-21T02:19:21;5.13;;;1.58;;
37905;SDS011;23739;51.448;6.674;2023-08-21T02:21:46;6.20;;;1.92;;
37905;SDS011;23739;51.448;6.674;2023-08-21T02:24:12;6.60;;;1.88;;
37905;SDS011;23739;51.448;6.674;2023-08-21T02:26:38;7.20;;;2.63;;
37905;SDS011;23739;51.448;6.674;2023-08-21T02:29:04;5.60;;;1.92;;
37905;SDS011;23739;51.448;6.674;2023-08-21T02:31:29;4.97;;;2.17;;
37905;SDS011;23739;51.448;6.674;2023-08-21T02:33:55;5.28;;;1.40;;
37905;SDS011;23739;51.448;6.674;2023-08-21T02:36:21;5.72;;;1.92;;
37905;SDS011;23739;51.448;6.674;2023-08-21T02:38:47;7.97;;;1.80;;
37905;SDS011;23739;51.448;6.674;2023-08-21T02:41:12;9.18;;;2.00;;
37905;SDS011;23739;51.448;6.674;2023-08-21T02:43:38;13.32;;;2.45;;
37905;SDS011;23739;51.448;6.674;2023-08-21T02:46:04;15.30;;;2.20;;
37905;SDS011;23739;51.448;6.674;2023-08-21T02:48:29;6.13;;;1.77;;
37905;SDS011;23739;51.448;6.674;2023-08-21T02:50:55;5.47;;;2.95;;
37905;SDS011;23739;51.448;6.674;2023-08-21T02:53:21;2.78;;;1.67;;
37905;SDS011;23739;51.448;6.674;2023-08-21T02:55:47;7.80;;;2.33;;
37905;SDS011;23739;51.448;6.674;2023-08-21T02:58:12;8.27;;;2.55;;
37905;SDS011;23739;51.448;6.674;2023-08-21T03:00:38;8.65;;;2.40;;
37905;SDS011;23739;51.448;6.674;2023-08-21T03:03:04;6.65;;;2.25;;
37905;SDS011;23739;51.448;6.674;2023-08-21T03:05:30;4.82;;;1.63;;
37905;SDS011;23739;51.448;6.674;2023-08-21T03:07:55;5.50;;;2.10;;
37905;SDS011;23739;51.448;6.674;2023-08-21T03:10:21;3.05;;;1.75;;
37905;SDS011;23739;51.448;6.674;2023-08-21T03:12:48;5.13;;;1.95;;
37905;SDS011;23739;51.448;6.674;2023-08-21T03:15:14;15.05;;;2.33;;
37905;SDS011;23739;51.448;6.674;2023-08-21T03:17:40;6.20;;;1.80;;
37905;SDS011;23739;51.448;6.674;2023-08-21T03:20:07;7.68;;;2.35;;
37905;SDS011;23739;51.448;6.674;2023-08-21T03:22:33;8.00;;;1.98;;
37905;SDS011;23739;51.448;6.674;2023-08-21T03:24:58;6.50;;;2.10;;
37905;SDS011;23739;51.448;6.674;2023-08-21T03:27:24;5.75;;;2.13;;
37905;SDS011;23739;51.448;6.674;2023-08-21T03:29:50;8.27;;;2.65;;
37905;SDS011;23739;51.448;6.674;2023-08-21T03:32:16;7.53;;;2.00;;
37905;SDS011;23739;51.448;6.674;2023-08-21T03:34:43;4.90;;;1.55;;
37905;SDS011;23739;51.448;6.674;2023-08-21T03:37:09;6.70;;;1.92;;
37905;SDS011;23739;51.448;6.674;2023-08-21T03:39:35;3.90;;;1.30;;
37905;SDS011;23739;51.448;6.674;2023-08-21T03:42:01;4.85;;;2.08;;
37905;SDS011;23739;51.448;6.674;2023-08-21T03:44:27;4.55;;;1.55;;
37905;SDS011;23739;51.448;6.674;2023-08-21T03:46:53;5.22;;;1.27;;
37905;SDS011;23739;51.448;6.674;2023-08-21T03:49:18;4.40;;;1.23;;
37905;SDS011;23739;51.448;6.674;2023-08-21T03:51:44;3.90;;;1.30;;
37905;SDS011;23739;51.448;6.674;2023-08-21T03:54:10;5.63;;;1.25;;
37905;SDS011;23739;51.448;6.674;2023-08-21T03:56:36;3.92;;;1.67;;
37905;SDS011;23739;51.448;6.674;2023-08-21T03:59:02;4.70;;;1.38;;
37905;SDS011;23739;51.448;6.674;2023-08-21T04:01:28;4.75;;;1.80;;
37905;SDS011;23739;51.448;6.674;2023-08-21T04:03:53;7.15;;;1.30;;
37905;SDS011;23739;51.448;6.674;2023-08-21T04:06:19;2.15;;;1.25;;
37905;SDS011;23739;51.448;6.674;2023-08-21T04:08:45;5.40;;;1.33;;
37905;SDS011;23739;51.448;6.674;2023-08-21T04:11:11;4.85;;;1.60;;
37905;SDS011;23739;51.448;6.674;2023-08-21T04:13:37;5.63;;;1.73;;
37905;SDS011;23739;51.448;6.674;2023-08-21T04:16:03;3.03;;;1.30;;
37905;SDS011;23739;51.448;6.674;2023-08-21T04:18:29;4.10;;;1.63;;
37905;SDS011;23739;51.448;6.674;2023-08-21T04:20:54;2.97;;;1.40;;
37905;SDS011;23739;51.448;6.674;2023-08-21T04:23:20;5.30;;;1.50;;
37905;SDS011;23739;51.448;6.674;2023-08-21T04:25:45;3.40;;;1.55;;
37905;SDS011;23739;51.448;6.674;2023-08-21T04:28:11;3.15;;;1.25;;
37905;SDS011;23739;51.448;6.674;2023-08-21T04:30:39;6.72;;;1.50;;
37905;SDS011;23739;51.448;6.674;2023-08-21T04:33:06;5.20;;;1.50;;
37905;SDS011;23739;51.448;6.674;2023-08-21T04:35:35;7.25;;;1.80;;
37905;SDS011;23739;51.448;6.674;2023-08-21T04:38:03;7.25;;;1.58;;
37905;SDS011;23739;51.448;6.674;2023-08-21T04:40:28;4.55;;;1.50;;
37905;SDS011;23739;51.448;6.674;2023-08-21T04:42:54;7.15;;;2.38;;
37905;SDS011;23739;51.448;6.674;2023-08-21T04:45:20;4.45;;;1.52;;
37905;SDS011;23739;51.448;6.674;2023-08-21T04:47:45;6.72;;;1.40;;
37905;SDS011;23739;51.448;6.674;2023-08-21T04:50:11;3.50;;;1.48;;
37905;SDS011;23739;51.448;6.674;2023-08-21T04:52:37;5.68;;;1.55;;
37905;SDS011;23739;51.448;6.674;2023-08-21T04:55:03;5.90;;;1.60;;
37905;SDS011;23739;51.448;6.674;2023-08-21T04:57:32;5.30;;;1.20;;
37905;SDS011;23739;51.448;6.674;2023-08-21T04:59:57;5.55;;;1.85;;
37905;SDS011;23739;51.448;6.674;2023-08-21T05:02:23;4.18;;;1.58;;
37905;SDS011;23739;51.448;6.674;2023-08-21T05:04:49;6.82;;;1.65;;
37905;SDS011;23739;51.448;6.674;2023-08-21T05:07:15;3.70;;;1.58;;
37905;SDS011;23739;51.448;6.674;2023-08-21T05:09:40;6.72;;;1.80;;
37905;SDS011;23739;51.448;6.674;2023-08-21T05:12:07;3.85;;;1.70;;
37905;SDS011;23739;51.448;6.674;2023-08-21T05:14:33;6.28;;;1.55;;
37905;SDS011;23739;51.448;6.674;2023-08-21T05:16:59;4.22;;;1.88;;
37905;SDS011;23739;51.448;6.674;2023-08-21T05:19:24;3.35;;;1.75;;
37905;SDS011;23739;51.448;6.674;2023-08-21T05:21:50;5.60;;;1.90;;
37905;SDS011;23739;51.448;6.674;2023-08-21T05:24:16;7.68;;;2.45;;
37905;SDS011;23739;51.448;6.674;2023-08-21T05:26:41;5.65;;;2.13;;
37905;SDS011;23739;51.448;6.674;2023-08-21T05:29:07;6.32;;;1.75;;
37905;SDS011;23739;51.448;6.674;2023-08-21T05:31:33;6.20;;;1.55;;
37905;SDS011;23739;51.448;6.674;2023-08-21T05:33:59;9.02;;;2.00;;
37905;SDS011;23739;51.448;6.674;2023-08-21T05:36:25;7.65;;;2.20;;
37905;SDS011;23739;51.448;6.674;2023-08-21T05:38:50;6.95;;;2.80;;
37905;SDS011;23739;51.448;6.674;2023-08-21T05:41:16;7.57;;;2.50;;
37905;SDS011;23739;51.448;6.674;2023-08-21T05:43:43;5.13;;;2.15;;
37905;SDS011;23739;51.448;6.674;2023-08-21T05:46:10;6.82;;;2.20;;
37905;SDS011;23739;51.448;6.674;2023-08-21T05:48:36;6.65;;;2.83;;
37905;SDS011;23739;51.448;6.674;2023-08-21T05:51:02;8.98;;;2.22;;
37905;SDS011;23739;51.448;6.674;2023-08-21T05:53:28;7.30;;;2.80;;
37905;SDS011;23739;51.448;6.674;2023-08-21T05:55:54;5.18;;;2.03;;
37905;SDS011;23739;51.448;6.674;2023-08-21T05:58:20;6.32;;;2.00;;
37905;SDS011;23739;51.448;6.674;2023-08-21T06:00:46;5.47;;;2.25;;
37905;SDS011;23739;51.448;6.674;2023-08-21T06:03:12;5.70;;;2.30;;
37905;SDS011;23739;51.448;6.674;2023-08-21T06:05:38;5.70;;;2.30;;
37905;SDS011;23739;51.448;6.674;2023-08-21T06:08:04;7.72;;;2.42;;
37905;SDS011;23739;51.448;6.674;2023-08-21T06:10:33;5.40;;;2.30;;
37905;SDS011;23739;51.448;6.674;2023-08-21T06:12:58;6.95;;;2.42;;
37905;SDS011;23739;51.448;6.674;2023-08-21T06:15:24;10.60;;;2.35;;
37905;SDS011;23739;51.448;6.674;2023-08-21T06:17:50;6.38;;;2.05;;
37905;SDS011;23739;51.448;6.674;2023-08-21T06:20:16;8.30;;;2.50;;
37905;SDS011;23739;51.448;6.674;2023-08-21T06:22:43;5.13;;;2.78;;
37905;SDS011;23739;51.448;6.674;2023-08-21T06:25:09;7.85;;;3.17;;
37905;SDS011;23739;51.448;6.674;2023-08-21T06:27:35;8.63;;;2.20;;
37905;SDS011;23739;51.448;6.674;2023-08-21T06:30:01;4.93;;;2.63;;
37905;SDS011;23739;51.448;6.674;2023-08-21T06:32:26;8.60;;;3.30;;
37905;SDS011;23739;51.448;6.674;2023-08-21T06:34:52;4.60;;;2.33;;
37905;SDS011;23739;51.448;6.674;2023-08-21T06:37:18;8.35;;;2.67;;
37905;SDS011;23739;51.448;6.674;2023-08-21T06:39:43;10.55;;;3.08;;
37905;SDS011;23739;51.448;6.674;2023-08-21T06:42:09;7.00;;;2.92;;
37905;SDS011;23739;51.448;6.674;2023-08-21T06:44:35;4.55;;;2.30;;
37905;SDS011;23739;51.448;6.674;2023-08-21T06:47:01;8.23;;;2.90;;
37905;SDS011;23739;51.448;6.674;2023-08-21T06:49:27;5.70;;;2.83;;
37905;SDS011;23739;51.448;6.674;2023-08-21T06:51:52;7.03;;;2.20;;
37905;SDS011;23739;51.448;6.674;2023-08-21T06:54:18;8.23;;;2.30;;
37905;SDS011;23739;51.448;6.674;2023-08-21T06:56:44;6.57;;;2.47;;
37905;SDS011;23739;51.448;6.674;2023-08-21T06:59:10;7.30;;;2.55;;
37905;SDS011;23739;51.448;6.674;2023-08-21T07:01:36;7.22;;;2.00;;
37905;SDS011;23739;51.448;6.674;2023-08-21T07:04:02;8.48;;;2.42;;
37905;SDS011;23739;51.448;6.674;2023-08-21T07:06:28;5.22;;;1.80;;
37905;SDS011;23739;51.448;6.674;2023-08-21T07:08:54;3.50;;;2.10;;
37905;SDS011;23739;51.448;6.674;2023-08-21T07:11:20;6.32;;;2.10;;
37905;SDS011;23739;51.448;6.674;2023-08-21T07:13:46;8.20;;;1.90;;
37905;SDS011;23739;51.448;6.674;2023-08-21T07:16:11;12.63;;;2.25;;
37905;SDS011;23739;51.448;6.674;2023-08-21T07:18:37;10.85;;;2.08;;
37905;SDS011;23739;51.448;6.674;2023-08-21T07:21:03;4.95;;;1.52;;
37905;SDS011;23739;51.448;6.674;2023-08-21T07:23:30;7.60;;;1.70;;
37905;SDS011;23739;51.448;6.674;2023-08-21T07:25:57;4.35;;;1.40;;
37905;SDS011;23739;51.448;6.674;2023-08-21T07:28:23;6.28;;;2.10;;
37905;SDS011;23739;51.448;6.674;2023-08-21T07:30:56;5.88;;;2.22;;
37905;SDS011;23739;51.448;6.674;2023-08-21T07:33:23;5.78;;;2.00;;
37905;SDS011;23739;51.448;6.674;2023-08-21T07:36:02;4.50;;;1.88;;
37905;SDS011;23739;51.448;6.674;2023-08-21T07:38:29;5.25;;;1.58;;
37905;SDS011;23739;51.448;6.674;2023-08-21T07:41:02;7.03;;;1.98;;
37905;SDS011;23739;51.448;6.674;2023-08-21T07:43:39;6.00;;;1.70;;
37905;SDS011;23739;51.448;6.674;2023-08-21T07:46:06;6.57;;;1.73;;
37905;SDS011;23739;51.448;6.674;2023-08-21T07:48:35;3.00;;;1.42;;
37905;SDS011;23739;51.448;6.674;2023-08-21T07:51:00;4.90;;;2.13;;
37905;SDS011;23739;51.448;6.674;2023-08-21T07:53:27;6.70;;;1.50;;
37905;SDS011;23739;51.448;6.674;2023-08-21T07:55:53;4.72;;;1.35;;
37905;SDS011;23739;51.448;6.674;2023-08-21T07:58:19;9.20;;;1.67;;
37905;SDS011;23739;51.448;6.674;2023-08-21T08:00:45;6.43;;;2.00;;
37905;SDS011;23739;51.448;6.674;2023-08-21T08:03:11;5.85;;;2.25;;
37905;SDS011;23739;51.448;6.674;2023-08-21T08:05:39;6.90;;;2.00;;
37905;SDS011;23739;51.448;6.674;2023-08-21T08:08:05;7.78;;;2.10;;
37905;SDS011;23739;51.448;6.674;2023-08-21T08:10:31;9.30;;;2.13;;
37905;SDS011;23739;51.448;6.674;2023-08-21T08:12:57;9.82;;;2.63;;
37905;SDS011;23739;51.448;6.674;2023-08-21T08:15:22;8.82;;;2.33;;
37905;SDS011;23739;51.448;6.674;2023-08-21T08:17:48;7.10;;;1.55;;
37905;SDS011;23739;51.448;6.674;2023-08-21T08:20:18;5.72;;;1.52;;
37905;SDS011;23739;51.448;6.674;2023-08-21T08:22:44;4.88;;;1.63;;
37905;SDS011;23739;51.448;6.674;2023-08-21T08:25:10;3.63;;;1.35;;
37905;SDS011;23739;51.448;6.674;2023-08-21T08:27:36;6.72;;;1.63;;
37905;SDS011;23739;51.448;6.674;2023-08-21T08:30:02;6.25;;;1.50;;
37905;SDS011;23739;51.448;6.674;2023-08-21T08:32:29;7.57;;;1.00;;
37905;SDS011;23739;51.448;6.674;2023-08-21T08:34:55;7.25;;;1.52;;
37905;SDS011;23739;51.448;6.674;2023-08-21T08:37:21;6.22;;;1.73;;
37905;SDS011;23739;51.448;6.674;2023-08-21T08:39:47;7.93;;;1.45;;
37905;SDS011;23739;51.448;6.674;2023-08-21T08:42:13;5.93;;;1.58;;
37905;SDS011;23739;51.448;6.674;2023-08-21T08:44:40;9.32;;;2.03;;
37905;SDS011;23739;51.448;6.674;2023-08-21T08:47:10;10.75;;;3.38;;
37905;SDS011;23739;51.448;6.674;2023-08-21T08:49:39;5.53;;;1.33;;
37905;SDS011;23739;51.448;6.674;2023-08-21T08:52:05;13.27;;;2.40;;
37905;SDS011;23739;51.448;6.674;2023-08-21T08:54:32;6.47;;;1.70;;
37905;SDS011;23739;51.448;6.674;2023-08-21T08:57:00;5.55;;;1.67;;
37905;SDS011;23739;51.448;6.674;2023-08-21T08:59:28;8.70;;;1.85;;
37905;SDS011;23739;51.448;6.674;2023-08-21T09:01:56;6.32;;;1.42;;
37905;SDS011;23739;51.448;6.674;2023-08-21T09:04:21;8.88;;;1.67;;
37905;SDS011;23739;51.448;6.674;2023-08-21T09:06:47;8.07;;;1.55;;
37905;SDS011;23739;51.448;6.674;2023-08-21T09:09:13;6.80;;;1.60;;
37905;SDS011;23739;51.448;6.674;2023-08-21T09:11:42;6.53;;;1.30;;
37905;SDS011;23739;51.448;6.674;2023-08-21T09:14:09;7.20;;;2.50;;
37905;SDS011;23739;51.448;6.674;2023-08-21T09:16:37;9.05;;;1.83;;
37905;SDS011;23739;51.448;6.674;2023-08-21T09:19:02;7.97;;;2.17;;
37905;SDS011;23739;51.448;6.674;2023-08-21T09:21:28;8.52;;;2.08;;
37905;SDS011;23739;51.448;6.674;2023-08-21T09:23:58;6.78;;;2.13;;
37905;SDS011;23739;51.448;6.674;2023-08-21T09:26:26;8.60;;;2.40;;
37905;SDS011;23739;51.448;6.674;2023-08-21T09:28:55;3.92;;;1.88;;
37905;SDS011;23739;51.448;6.674;2023-08-21T09:31:24;5.65;;;1.48;;
37905;SDS011;23739;51.448;6.674;2023-08-21T09:33:55;5.25;;;1.20;;
37905;SDS011;23739;51.448;6.674;2023-08-21T09:36:22;5.25;;;1.50;;
37905;SDS011;23739;51.448;6.674;2023-08-21T09:38:50;6.25;;;1.00;;
37905;SDS011;23739;51.448;6.674;2023-08-21T09:41:18;5.15;;;1.35;;
37905;SDS011;23739;51.448;6.674;2023-08-21T09:43:45;3.83;;;1.10;;
37905;SDS011;23739;51.448;6.674;2023-08-21T09:46:13;2.97;;;1.23;;
37905;SDS011;23739;51.448;6.674;2023-08-21T09:48:41;4.47;;;1.10;;
37905;SDS011;23739;51.448;6.674;2023-08-21T09:51:12;5.30;;;1.15;;
37905;SDS011;23739;51.448;6.674;2023-08-21T09:53:37;5.43;;;1.13;;
37905;SDS011;23739;51.448;6.674;2023-08-21T09:56:04;4.80;;;1.08;;
37905;SDS011;23739;51.448;6.674;2023-08-21T09:58:30;4.07;;;1.30;;
37905;SDS011;23739;51.448;6.674;2023-08-21T10:00:58;5.20;;;1.35;;
37905;SDS011;23739;51.448;6.674;2023-08-21T10:03:24;8.05;;;1.35;;
37905;SDS011;23739;51.448;6.674;2023-08-21T10:05:51;3.58;;;1.08;;
37905;SDS011;23739;51.448;6.674;2023-08-21T10:08:21;4.10;;;1.08;;
37905;SDS011;23739;51.448;6.674;2023-08-21T10:10:49;5.90;;;1.20;;
37905;SDS011;23739;51.448;6.674;2023-08-21T10:13:15;3.40;;;1.13;;
37905;SDS011;23739;51.448;6.674;2023-08-21T10:15:41;7.15;;;1.55;;
37905;SDS011;23739;51.448;6.674;2023-08-21T10:18:29;5.50;;;1.30;;
37905;SDS011;23739;51.448;6.674;2023-08-21T10:20:56;3.90;;;0.98;;
37905;SDS011;23739;51.448;6.674;2023-08-21T10:23:39;1.63;;;1.10;;
37905;SDS011;23739;51.448;6.674;2023-08-21T10:26:06;4.65;;;0.77;;
37905;SDS011;23739;51.448;6.674;2023-08-21T10:36:37;3.33;;;1.10;;
37905;SDS011;23739;51.448;6.674;2023-08-21T10:47:21;5.60;;;1.27;;
37905;SDS011;23739;51.448;6.674;2023-08-21T10:49:55;6.88;;;1.75;;
37905;SDS011;23739;51.448;6.674;2023-08-21T10:52:29;3.25;;;1.30;;
37905;SDS011;23739;51.448;6.674;2023-08-21T10:54:58;7.63;;;2.13;;
37905;SDS011;23739;51.448;6.674;2023-08-21T10:57:26;5.28;;;1.60;;
37905;SDS011;23739;51.448;6.674;2023-08-21T10:59:54;5.55;;;1.60;;
37905;SDS011;23739;51.448;6.674;2023-08-21T11:02:43;9.35;;;1.27;;
37905;SDS011;23739;51.448;6.674;2023-08-21T11:05:11;5.28;;;1.00;;
37905;SDS011;23739;51.448;6.674;2023-08-21T11:10:12;7.03;;;1.45;;
37905;SDS011;23739;51.448;6.674;2023-08-21T11:12:51;3.42;;;1.75;;
37905;SDS011;23739;51.448;6.674;2023-08-21T11:15:20;5.85;;;1.30;;
37905;SDS011;23739;51.448;6.674;2023-08-21T11:17:53;4.60;;;1.55;;
37905;SDS011;23739;51.448;6.674;2023-08-21T11:20:19;5.40;;;1.30;;
37905;SDS011;23739;51.448;6.674;2023-08-21T11:22:45;3.05;;;1.02;;
37905;SDS011;23739;51.448;6.674;2023-08-21T11:25:11;5.55;;;1.70;;
37905;SDS011;23739;51.448;6.674;2023-08-21T11:27:37;3.60;;;1.05;;
37905;SDS011;23739;51.448;6.674;2023-08-21T11:30:03;4.45;;;1.55;;
37905;SDS011;23739;51.448;6.674;2023-08-21T11:32:30;4.85;;;1.20;;
37905;SDS011;23739;51.448;6.674;2023-08-21T11:34:56;2.58;;;0.90;;
37905;SDS011;23739;51.448;6.674;2023-08-21T11:37:26;5.28;;;1.42;;
37905;SDS011;23739;51.448;6.674;2023-08-21T11:42:28;5.93;;;2.35;;
37905;SDS011;23739;51.448;6.674;2023-08-21T11:44:56;6.70;;;1.33;;
37905;SDS011;23739;51.448;6.674;2023-08-21T11:47:22;4.68;;;1.38;;
37905;SDS011;23739;51.448;6.674;2023-08-21T11:49:49;4.35;;;1.20;;
37905;SDS011;23739;51.448;6.674;2023-08-21T11:52:22;6.72;;;1.40;;
37905;SDS011;23739;51.448;6.674;2023-08-21T11:54:53;4.20;;;1.00;;
37905;SDS011;23739;51.448;6.674;2023-08-21T11:57:19;4.50;;;1.65;;
37905;SDS011;23739;51.448;6.674;2023-08-21T11:59:52;3.92;;;1.42;;
37905;SDS011;23739;51.448;6.674;2023-08-21T12:05:13;5.70;;;1.10;;
37905;SDS011;23739;51.448;6.674;2023-08-21T12:07:39;3.58;;;1.63;;
37905;SDS011;23739;51.448;6.674;2023-08-21T12:10:05;3.53;;;1.88;;
37905;SDS011;23739;51.448;6.674;2023-08-21T12:12:31;3.65;;;1.15;;
37905;SDS011;23739;51.448;6.674;2023-08-21T12:14:57;5.68;;;1.20;;
37905;SDS011;23739;51.448;6.674;2023-08-21T12:17:23;6.90;;;1.25;;
37905;SDS011;23739;51.448;6.674;2023-08-21T12:19:49;3.15;;;1.10;;
37905;SDS011;23739;51.448;6.674;2023-08-21T12:22:14;4.88;;;1.30;;
37905;SDS011;23739;51.448;6.674;2023-08-21T12:24:40;4.93;;;1.73;;
37905;SDS011;23739;51.448;6.674;2023-08-21T12:27:06;3.17;;;1.50;;
37905;SDS011;23739;51.448;6.674;2023-08-21T12:29:33;5.93;;;1.85;;
37905;SDS011;23739;51.448;6.674;2023-08-21T12:31:59;6.13;;;1.35;;
37905;SDS011;23739;51.448;6.674;2023-08-21T12:34:25;4.43;;;1.00;;
37905;SDS011;23739;51.448;6.674;2023-08-21T12:36:51;5.55;;;1.40;;
37905;SDS011;23739;51.448;6.674;2023-08-21T12:39:17;4.18;;;1.38;;
37905;SDS011;23739;51.448;6.674;2023-08-21T12:41:43;6.00;;;1.38;;
37905;SDS011;23739;51.448;6.674;2023-08-21T12:44:10;4.07;;;1.35;;
37905;SDS011;23739;51.448;6.674;2023-08-21T12:46:36;6.70;;;1.67;;
37905;SDS011;23739;51.448;6.674;2023-08-21T12:49:02;5.28;;;1.75;;
37905;SDS011;23739;51.448;6.674;2023-08-21T12:51:29;5.80;;;1.83;;
37905;SDS011;23739;51.448;6.674;2023-08-21T12:53:55;4.20;;;1.63;;
37905;SDS011;23739;51.448;6.674;2023-08-21T12:56:21;2.35;;;1.20;;
37905;SDS011;23739;51.448;6.674;2023-08-21T12:58:47;3.58;;;1.33;;
37905;SDS011;23739;51.448;6.674;2023-08-21T13:01:13;3.45;;;1.17;;
37905;SDS011;23739;51.448;6.674;2023-08-21T13:03:43;3.75;;;1.63;;
37905;SDS011;23739;51.448;6.674;2023-08-21T13:06:12;4.57;;;1.50;;
37905;SDS011;23739;51.448;6.674;2023-08-21T13:08:39;4.85;;;1.20;;
37905;SDS011;23739;51.448;6.674;2023-08-21T13:11:05;7.55;;;1.55;;
37905;SDS011;23739;51.448;6.674;2023-08-21T13:13:31;5.30;;;1.40;;
37905;SDS011;23739;51.448;6.674;2023-08-21T13:15:57;5.28;;;2.00;;
37905;SDS011;23739;51.448;6.674;2023-08-21T13:18:24;4.10;;;1.63;;
37905;SDS011;23739;51.448;6.674;2023-08-21T13:20:49;6.75;;;1.40;;
37905;SDS011;23739;51.448;6.674;2023-08-21T13:23:15;5.50;;;2.22;;
37905;SDS011;23739;51.448;6.674;2023-08-21T13:25:41;3.67;;;1.40;;
37905;SDS011;23739;51.448;6.674;2023-08-21T13:28:07;4.90;;;1.50;;
37905;SDS011;23739;51.448;6.674;2023-08-21T13:30:33;5.72;;;1.58;;
37905;SDS011;23739;51.448;6.674;2023-08-21T13:32:58;6.22;;;1.95;;
37905;SDS011;23739;51.448;6.674;2023-08-21T13:35:24;4.57;;;1.30;;
37905;SDS011;23739;51.448;6.674;2023-08-21T13:37:50;4.90;;;1.70;;
37905;SDS011;23739;51.448;6.674;2023-08-21T13:40:16;3.20;;;1.40;;
37905;SDS011;23739;51.448;6.674;2023-08-21T13:42:46;6.85;;;1.60;;
37905;SDS011;23739;51.448;6.674;2023-08-21T13:45:14;5.72;;;2.00;;
37905;SDS011;23739;51.448;6.674;2023-08-21T13:47:45;3.92;;;1.65;;
37905;SDS011;23739;51.448;6.674;2023-08-21T13:50:12;3.28;;;1.50;;
37905;SDS011;23739;51.448;6.674;2023-08-21T13:52:39;6.53;;;1.92;;
37905;SDS011;23739;51.448;6.674;2023-08-21T13:55:06;5.72;;;1.77;;
37905;SDS011;23739;51.448;6.674;2023-08-21T13:57:33;2.72;;;1.50;;
37905;SDS011;23739;51.448;6.674;2023-08-21T13:59:59;3.95;;;1.48;;
37905;SDS011;23739;51.448;6.674;2023-08-21T14:02:25;7.45;;;1.92;;
37905;SDS011;23739;51.448;6.674;2023-08-21T14:04:51;6.72;;;1.80;;
37905;SDS011;23739;51.448;6.674;2023-08-21T14:07:17;4.60;;;1.75;;
37905;SDS011;23739;51.448;6.674;2023-08-21T14:09:43;6.85;;;2.17;;
37905;SDS011;23739;51.448;6.674;2023-08-21T14:12:08;5.90;;;1.98;;
37905;SDS011;23739;51.448;6.674;2023-08-21T14:14:34;3.55;;;2.33;;
37905;SDS011;23739;51.448;6.674;2023-08-21T14:17:01;7.28;;;1.65;;
37905;SDS011;23739;51.448;6.674;2023-08-21T14:19:27;4.97;;;1.80;;
37905;SDS011;23739;51.448;6.674;2023-08-21T14:21:53;6.00;;;2.08;;
37905;SDS011;23739;51.448;6.674;2023-08-21T14:24:19;5.22;;;1.73;;
37905;SDS011;23739;51.448;6.674;2023-08-21T14:26:45;5.30;;;2.38;;
37905;SDS011;23739;51.448;6.674;2023-08-21T14:29:11;4.78;;;1.75;;
37905;SDS011;23739;51.448;6.674;2023-08-21T14:31:36;4.53;;;2.10;;
37905;SDS011;23739;51.448;6.674;2023-08-21T14:34:02;4.43;;;1.80;;
37905;SDS011;23739;51.448;6.674;2023-08-21T14:36:28;4.97;;;2.28;;
37905;SDS011;23739;51.448;6.674;2023-08-21T14:38:53;5.93;;;1.95;;
37905;SDS011;23739;51.448;6.674;2023-08-21T14:41:19;4.85;;;1.98;;
37905;SDS011;23739;51.448;6.674;2023-08-21T14:43:45;6.07;;;1.88;;
37905;SDS011;23739;51.448;6.674;2023-08-21T14:46:11;3.95;;;2.03;;
37905;SDS011;23739;51.448;6.674;2023-08-21T14:48:37;7.15;;;2.67;;
37905;SDS011;23739;51.448;6.674;2023-08-21T14:51:03;5.35;;;2.30;;
37905;SDS011;23739;51.448;6.674;2023-08-21T14:53:30;5.40;;;2.03;;
37905;SDS011;23739;51.448;6.674;2023-08-21T14:55:56;3.38;;;2.25;;
37905;SDS011;23739;51.448;6.674;2023-08-21T14:58:22;4.30;;;2.20;;
37905;SDS011;23739;51.448;6.674;2023-08-21T15:00:48;4.95;;;2.35;;
37905;SDS011;23739;51.448;6.674;2023-08-21T15:03:15;4.05;;;2.15;;
37905;SDS011;23739;51.448;6.674;2023-08-21T15:05:40;3.42;;;1.90;;
37905;SDS011;23739;51.448;6.674;2023-08-21T15:08:06;6.47;;;2.47;;
37905;SDS011;23739;51.448;6.674;2023-08-21T15:10:32;3.95;;;1.95;;
37905;SDS011;23739;51.448;6.674;2023-08-21T15:12:57;5.32;;;1.85;;
37905;SDS011;23739;51.448;6.674;2023-08-21T15:15:23;5.32;;;1.80;;
37905;SDS011;23739;51.448;6.674;2023-08-21T15:17:49;5.78;;;1.77;;